createdAt,value
2022-08-23T05:49:46.516Z,21.84
2022-08-23T05:52:24.026Z,21.83
2022-08-23T05:55:00.901Z,21.85
2022-08-23T05:58:01.081Z,21.88
2022-08-23T06:00:40.804Z,21.92
2022-08-23T06:03:19.675Z,21.95
2022-08-23T06:06:04.763Z,22.01
2022-08-23T06:08:42.851Z,22.03
2022-08-23T06:11:24.064Z,22.08
2022-08-23T06:14:05.643Z,22.12
2022-08-23T06:16:47.941Z,22.18
2022-08-23T06:19:29.496Z,22.21
2022-08-23T06:22:23.782Z,22.27
2022-08-23T06:25:01.006Z,22.27
2022-08-23T06:27:57.923Z,22.29
2022-08-23T06:30:39.562Z,22.33
2022-08-23T06:33:35.340Z,22.34
2022-08-23T06:36:45.596Z,22.31
2022-08-23T06:39:46.427Z,22.37
2022-08-23T06:42:47.578Z,22.33
2022-08-23T06:45:34.936Z,22.35
2022-08-23T06:48:18.257Z,22.37
2022-08-23T06:50:55.677Z,22.40
2022-08-23T06:54:04.355Z,22.47
2022-08-23T06:57:02.369Z,22.51
2022-08-23T06:59:44.431Z,22.54
2022-08-23T07:02:36.601Z,22.56
2022-08-23T07:05:32.245Z,22.57
2022-08-23T07:08:18.671Z,22.58
2022-08-23T07:10:56.341Z,22.58
2022-08-23T07:13:36.418Z,22.58
2022-08-23T07:16:13.962Z,22.61
2022-08-23T07:18:53.397Z,22.70
2022-08-23T07:21:33.859Z,22.79
2022-08-23T07:24:15.097Z,22.87
2022-08-23T07:26:58.443Z,22.92
2022-08-23T07:29:39.992Z,22.96
2022-08-23T07:32:18.785Z,22.96
2022-08-23T07:34:57.667Z,23.03
2022-08-23T07:37:35.252Z,23.05
2022-08-23T07:40:20.197Z,23.10
2022-08-23T07:43:00.822Z,23.10
2022-08-23T07:45:43.697Z,23.12
2022-08-23T07:48:43.308Z,23.15
2022-08-23T07:51:25.343Z,23.09
2022-08-23T07:54:04.813Z,23.12
2022-08-23T07:56:42.272Z,23.16
2022-08-23T07:59:31.446Z,23.21
2022-08-23T08:02:33.764Z,23.28
2022-08-23T08:05:12.597Z,23.31
2022-08-23T08:07:49.499Z,23.30
2022-08-23T08:10:26.591Z,23.30
2022-08-23T08:13:03.845Z,23.31
2022-08-23T08:15:46.038Z,23.31
2022-08-23T08:18:28.156Z,23.33
2022-08-23T08:21:26.034Z,23.34
2022-08-23T08:24:17.438Z,23.37
2022-08-23T08:26:58.257Z,23.44
2022-08-23T08:29:36.100Z,23.54
2022-08-23T08:32:14.107Z,23.61
2022-08-23T08:34:54.100Z,23.69
2022-08-23T08:37:31.313Z,23.65
2022-08-23T13:20:28.147Z,27.31
2022-08-23T13:23:09.647Z,27.39
2022-08-23T13:25:47.051Z,27.49
2022-08-23T13:28:29.469Z,27.73
2022-08-23T13:31:11.555Z,27.94
2022-08-23T13:33:57.216Z,28.18
2022-08-23T13:36:37.057Z,28.34
2022-08-23T13:39:14.216Z,28.55
2022-08-23T13:41:51.087Z,28.70
2022-08-23T13:44:31.958Z,28.88
2022-08-23T13:47:10.317Z,29.02
2022-08-23T13:49:47.598Z,28.86
2022-08-23T13:52:50.956Z,28.85
2022-08-23T13:55:24.737Z,28.84
2022-08-23T13:58:02.935Z,28.88
2022-08-23T14:00:54.782Z,28.82
2022-08-23T14:03:35.287Z,28.82
2022-08-23T14:06:12.846Z,28.85
2022-08-23T14:08:53.148Z,28.87
2022-08-23T14:11:30.445Z,28.76
2022-08-23T14:14:09.295Z,28.75
2022-08-23T14:16:46.653Z,28.81
2022-08-23T14:22:21.305Z,28.75
2022-08-23T14:25:01.311Z,28.76
2022-08-23T14:27:39.838Z,28.75
2022-08-23T14:30:29.316Z,28.70
2022-08-23T14:33:09.083Z,28.57
2022-08-23T14:35:46.002Z,28.54
2022-08-23T14:38:24.438Z,28.52
2022-08-23T14:41:09.347Z,28.46
2022-08-23T14:43:46.511Z,28.38
2022-08-23T14:46:24.543Z,28.30
2022-08-23T14:49:01.887Z,28.26
2022-08-23T14:51:43.089Z,28.18
2022-08-23T14:54:25.491Z,27.99
2022-08-23T14:57:04.893Z,27.90
2022-08-23T14:59:42.499Z,27.75
2022-08-23T15:02:26.999Z,27.77
2022-08-23T15:05:04.947Z,27.73
2022-08-23T15:07:41.978Z,27.72
2022-08-23T15:13:29.831Z,27.59
2022-08-23T15:16:13.902Z,27.41
2022-08-23T15:18:54.315Z,27.30
2022-08-23T15:21:31.696Z,27.17
2022-08-23T15:24:09.789Z,27.01
2022-08-23T15:26:46.948Z,26.90
2022-08-23T15:29:26.293Z,26.84
2022-08-23T15:32:03.445Z,26.79
2022-08-23T15:34:46.199Z,26.66
2022-08-23T15:37:24.776Z,26.52
2022-08-23T15:40:01.838Z,26.39
2022-08-23T15:42:39.518Z,26.28
2022-08-23T15:45:19.970Z,26.16
2022-08-23T15:48:01.418Z,25.96
2022-08-23T15:50:39.389Z,25.81
2022-08-23T15:53:17.321Z,25.62
2022-08-23T15:55:55.337Z,25.50
2022-08-23T15:58:33.685Z,25.30
2022-08-23T16:01:13.562Z,25.21
2022-08-23T16:03:50.928Z,25.11
2022-08-23T16:06:27.619Z,25.04
2022-08-23T16:09:05.497Z,24.99
2022-08-23T16:11:42.258Z,24.93
2022-08-23T16:14:19.716Z,24.85
2022-08-23T16:16:59.139Z,24.83
2022-08-23T16:19:36.387Z,24.75
2022-08-23T16:22:13.499Z,24.69
2022-08-23T16:24:50.777Z,24.62
2022-08-23T16:27:27.487Z,24.61
2022-08-23T16:30:04.711Z,24.59
2022-08-23T16:32:44.671Z,24.56
2022-08-23T16:37:58.630Z,24.41
2022-08-23T16:40:35.770Z,24.39
2022-08-23T16:43:14.183Z,24.35
2022-08-23T16:45:53.634Z,24.33
2022-08-23T16:48:34.473Z,24.29
2022-08-23T16:51:12.026Z,24.19
2022-08-23T16:53:57.053Z,24.15
2022-08-23T16:56:43.535Z,24.09
2022-08-23T16:59:22.332Z,24.05
2022-08-23T17:02:10.533Z,24.02
2022-08-23T17:04:52.849Z,23.96
2022-08-23T17:07:31.764Z,23.88
2022-08-23T17:10:14.276Z,23.87
2022-08-23T17:12:57.094Z,23.78
2022-08-23T17:15:38.798Z,23.79
2022-08-23T17:18:16.098Z,23.76
2022-08-23T17:20:56.670Z,23.78
2022-08-23T17:23:37.703Z,23.77
2022-08-23T17:26:17.702Z,23.79
2022-08-23T17:28:57.280Z,23.78
2022-08-23T17:31:36.049Z,23.73
2022-08-23T17:34:16.924Z,23.77
2022-08-23T17:36:58.871Z,23.75
2022-08-23T17:39:36.151Z,23.74
2022-08-23T17:42:13.615Z,23.71
2022-08-23T17:44:50.909Z,23.70
2022-08-23T17:47:29.082Z,23.66
2022-08-23T17:50:07.296Z,23.64
2022-08-23T17:52:46.748Z,23.63
2022-08-23T17:55:24.304Z,23.60
2022-08-23T17:58:03.731Z,23.55
2022-08-23T18:00:42.908Z,23.53
2022-08-23T18:03:19.690Z,23.52
2022-08-23T18:05:57.039Z,23.50
2022-08-23T18:08:36.448Z,23.45
2022-08-23T18:11:14.129Z,23.45
2022-08-23T18:13:53.646Z,23.46
2022-08-23T18:16:35.561Z,23.43
2022-08-23T18:19:13.972Z,23.44
2022-08-23T18:21:54.792Z,23.43
2022-08-23T18:24:34.806Z,23.43
2022-08-23T18:27:24.431Z,23.45
2022-08-23T18:30:01.589Z,23.42
2022-08-23T18:32:39.619Z,23.40
2022-08-23T18:35:17.066Z,23.38
2022-08-23T18:37:54.938Z,23.36
2022-08-23T18:40:45.456Z,23.33
2022-08-23T18:43:37.082Z,23.30
2022-08-23T18:46:15.783Z,23.29
2022-08-23T18:48:53.965Z,23.24
2022-08-23T18:51:31.502Z,23.22
2022-08-23T18:54:09.900Z,23.24
2022-08-23T18:56:50.011Z,23.21
2022-08-23T18:59:27.790Z,23.18
2022-08-23T19:02:04.909Z,23.15
2022-08-23T19:04:42.379Z,23.13
2022-08-23T19:07:19.668Z,23.12
2022-08-23T19:09:57.573Z,23.11
2022-08-23T19:12:37.632Z,23.07
2022-08-23T19:15:17.196Z,23.05
2022-08-23T19:17:54.627Z,23.04
2022-08-23T19:20:34.188Z,23.02
2022-08-23T19:23:11.223Z,22.97
2022-08-23T19:25:50.422Z,22.97
2022-08-23T19:28:30.231Z,22.98
2022-08-23T19:31:08.672Z,22.96
2022-08-23T19:33:46.321Z,22.94
2022-08-23T19:36:44.856Z,22.94
2022-08-23T19:39:21.878Z,22.92
2022-08-23T19:41:59.343Z,22.91
2022-08-23T19:44:40.007Z,22.91
2022-08-23T19:47:19.777Z,22.89
2022-08-23T19:49:58.532Z,22.87
2022-08-23T19:52:38.229Z,22.85
2022-08-23T19:55:16.119Z,22.86
2022-08-23T19:57:58.800Z,22.84
2022-08-23T20:00:39.538Z,22.83
2022-08-23T20:03:17.001Z,22.84
2022-08-23T20:05:54.360Z,22.84
2022-08-23T20:08:32.764Z,22.83
2022-08-23T20:11:10.871Z,22.82
2022-08-23T20:13:48.632Z,22.83
2022-08-23T20:16:29.797Z,22.82
2022-08-23T20:19:08.467Z,22.78
